createdAt,value
2023-01-13T00:04:15.895Z,9.4
2023-01-13T00:14:18.500Z,9.4
2023-01-13T00:24:20.519Z,9.4
2023-01-13T00:34:22.264Z,9.3
2023-01-13T00:44:24.011Z,9.3
2023-01-13T00:54:26.214Z,9.4
2023-01-13T01:04:28.068Z,9.4
2023-01-13T01:14:30.455Z,9.6
2023-01-13T01:24:32.302Z,9.5
2023-01-13T01:34:34.316Z,9.5
2023-01-13T01:44:36.793Z,9.5
2023-01-13T01:54:39.369Z,9.4
2023-01-13T02:04:41.599Z,9.4
2023-01-13T02:14:44.188Z,9.3
2023-01-13T02:44:50.795Z,9
2023-01-13T02:54:52.733Z,9
2023-01-13T03:14:57.045Z,9.1
2023-01-13T03:35:01.527Z,8.7
2023-01-13T04:45:17.142Z,8
2023-01-13T05:25:24.959Z,8
2023-01-13T05:35:27.130Z,8
2023-01-13T05:45:29.275Z,7.9
2023-01-13T05:55:31.381Z,7.8
2023-01-13T06:15:36.370Z,8
2023-01-13T06:35:40.483Z,7.9
2023-01-13T06:55:44.739Z,7.8
2023-01-13T07:05:46.790Z,7.7
2023-01-13T07:15:48.791Z,7.7
2023-01-13T07:25:50.772Z,7.6
2023-01-13T07:45:55.052Z,7.6
2023-01-13T07:55:57.115Z,7.6
2023-01-13T08:16:02.130Z,7.8
2023-01-13T08:26:04.619Z,7.9
2023-01-13T08:36:07.026Z,8
2023-01-13T09:06:13.617Z,8
2023-01-13T10:06:25.534Z,8.2
2023-01-13T10:16:28.043Z,8.4
2023-01-13T10:26:29.808Z,8.4
2023-01-13T10:36:32.275Z,8.5
2023-01-13T10:46:34.445Z,8.6
2023-01-13T10:56:36.491Z,8.7
2023-01-13T11:06:38.573Z,8.8
2023-01-13T11:26:43.031Z,8.2
2023-01-13T11:36:45.625Z,8.4
2023-01-13T11:37:07.559Z,8.4
2023-01-13T11:46:54.543Z,8.5
2023-01-13T11:56:56.255Z,8.2
2023-01-13T12:17:01.220Z,8.1
2023-01-13T12:27:01.963Z,7.5
2023-01-13T12:37:03.619Z,7.1
2023-01-13T12:47:05.672Z,7.8
2023-01-13T13:17:12.098Z,8.3
2023-01-13T13:27:13.929Z,8.4
2023-01-13T13:37:15.591Z,8.5
2023-01-13T14:07:23.199Z,6
2023-01-13T14:17:24.797Z,6.9
2023-01-13T14:27:27.258Z,7.2
2023-01-13T14:37:29.610Z,6.9
2023-01-13T14:47:31.548Z,6.8
2023-01-13T14:57:33.936Z,6.9
2023-01-13T15:07:35.716Z,6.9
2023-01-13T15:17:37.565Z,6.9
2023-01-13T15:27:39.938Z,7
2023-01-13T15:37:42.020Z,7
2023-01-13T15:47:44.249Z,7
2023-01-13T15:57:46.578Z,7
2023-01-13T16:07:48.569Z,7.1
2023-01-13T16:17:50.355Z,7.2
2023-01-13T16:27:52.821Z,7.3
2023-01-13T16:37:54.601Z,7.3
2023-01-13T16:47:56.564Z,7.3
2023-01-13T16:57:59.113Z,7.5
2023-01-13T17:08:00.893Z,7.6
2023-01-13T17:18:03.163Z,7.6
2023-01-13T17:28:05.810Z,7.6
2023-01-13T17:38:07.752Z,7.6
2023-01-13T17:48:09.906Z,7.7
2023-01-13T17:58:11.820Z,7.8
2023-01-13T18:08:14.355Z,7.5
2023-01-13T18:18:16.189Z,7.4
2023-01-13T18:28:18.424Z,7.2
2023-01-13T18:38:20.808Z,7.3
2023-01-13T18:48:22.569Z,7.2
2023-01-13T18:58:24.733Z,7.3
2023-01-13T19:08:26.929Z,7.5
2023-01-13T19:18:29.278Z,7.7
2023-01-13T19:28:31.849Z,7.8
2023-01-13T19:38:33.855Z,7.4
2023-01-13T19:48:35.731Z,7.2
2023-01-13T19:58:37.960Z,7
2023-01-13T20:08:39.640Z,7.1
2023-01-13T20:18:41.738Z,7.3
2023-01-13T20:28:43.630Z,7.4
2023-01-13T20:38:45.316Z,7.4
2023-01-13T20:48:47.724Z,7.5
2023-01-13T20:58:49.828Z,7.5
2023-01-13T21:08:51.747Z,7.5
2023-01-13T21:18:54.389Z,7.5
2023-01-13T21:28:56.577Z,7.3
2023-01-13T21:38:58.450Z,7
2023-01-13T21:49:00.260Z,7
2023-01-13T21:59:02.458Z,7
2023-01-13T22:09:04.384Z,7
2023-01-13T22:19:06.680Z,7.1
2023-01-13T22:29:09.061Z,7.1
2023-01-13T22:39:11.025Z,7.1
2023-01-13T22:49:13.043Z,7.1
2023-01-13T22:59:15.158Z,7.1
2023-01-13T23:09:17.224Z,7.4
2023-01-13T23:39:23.302Z,7.5
2023-01-13T23:49:25.900Z,7.5
2023-01-13T23:59:27.985Z,7.5
